Time;durP1;ratioP1;P1;durP2;ratioP2;P2;SDS_P1;SDS_P2;PMS_P1;PMS_P2;Temp;Humidity;BMP_temperature;BMP_pressure;BME280_temperature;BME280_humidity;BME280_pressure;Samples;Min_cycle;Max_cycle;Signal;HPM_P1;HPM_P2
2023/08/04 00:08:43;;;;;;;7.2;3.2;;;;;;;16.88;78.57;;;;;
2023/08/04 00:18:44;;;;;;;7.2;3.2;;;;;;;16.81;78.32;;;;;
2023/08/04 00:29:43;;;;;;;7.2;3.2;;;;;;;16.72;78.6;;;;;
2023/08/04 00:39:43;;;;;;;6.3;2.9;;;;;;;16.83;78.22;;;;;
2023/08/04 00:50:43;;;;;;;6.3;2.9;;;;;;;16.8;78.98;;;;;
2023/08/04 01:00:43;;;;;;;6.3;2.9;;;;;;;16.82;79.68;;;;;
2023/08/04 01:11:43;;;;;;;5.2;2.7;;;;;;;16.82;80.54;;;;;
2023/08/04 01:21:43;;;;;;;5.2;2.7;;;;;;;16.76;81.03;;;;;
2023/08/04 01:32:43;;;;;;;5.2;2.7;;;;;;;16.76;81.5;;;;;
2023/08/04 01:42:43;;;;;;;5.2;3;;;;;;;16.64;82.71;;;;;
2023/08/04 01:53:43;;;;;;;5.2;3;;;;;;;16.69;82.96;;;;;
2023/08/04 02:03:44;;;;;;;5.2;3;;;;;;;16.65;83.18;;;;;
2023/08/04 02:13:43;;;;;;;5;2.3;;;;;;;16.75;82.86;;;;;
2023/08/04 02:24:43;;;;;;;5;2.3;;;;;;;16.86;82.48;;;;;
2023/08/04 02:34:43;;;;;;;5;2.3;;;;;;;16.87;81.61;;;;;
2023/08/04 02:44:44;;;;;;;4.1;1.9;;;;;;;17.13;79.52;;;;;
2023/08/04 02:54:44;;;;;;;4.1;1.9;;;;;;;17.34;78.44;;;;;
2023/08/04 03:05:44;;;;;;;4.1;1.9;;;;;;;17.38;78.72;;;;;
2023/08/04 03:16:43;;;;;;;3.4;1.8;;;;;;;17.54;76.48;;;;;
2023/08/04 03:26:43;;;;;;;3.4;1.8;;;;;;;17.66;75.67;;;;;
2023/08/04 03:36:44;;;;;;;3.4;1.8;;;;;;;17.68;78.78;;;;;
2023/08/04 03:47:43;;;;;;;7.7;2.1;;;;;;;17.25;81.54;;;;;
2023/08/04 03:58:43;;;;;;;7.7;2.1;;;;;;;17.22;82.06;;;;;
2023/08/04 04:09:43;;;;;;;5.5;2.5;;;;;;;17.13;82.9;;;;;
2023/08/04 04:19:44;;;;;;;5.5;2.5;;;;;;;17.18;82.74;;;;;
2023/08/04 04:29:43;;;;;;;5.5;2.5;;;;;;;17.31;82.81;;;;;
2023/08/04 04:40:43;;;;;;;5.8;2.8;;;;;;;17.31;83.47;;;;;
2023/08/04 04:50:43;;;;;;;5.8;2.8;;;;;;;17.45;83.53;;;;;
2023/08/04 05:01:43;;;;;;;5.8;2.8;;;;;;;17.74;83.22;;;;;
2023/08/04 05:11:44;;;;;;;6.9;3.4;;;;;;;17.95;82.82;;;;;
2023/08/04 05:21:44;;;;;;;6.9;3.4;;;;;;;18.16;83.21;;;;;
2023/08/04 05:32:44;;;;;;;6.9;3.4;;;;;;;18.53;82.55;;;;;
2023/08/04 05:43:43;;;;;;;6.2;3;;;;;;;18.5;76.29;;;;;
2023/08/04 05:53:44;;;;;;;6.2;3;;;;;;;18.71;75.82;;;;;
2023/08/04 06:04:44;;;;;;;6.2;3;;;;;;;19.24;75.67;;;;;
2023/08/04 06:14:44;;;;;;;5;2.1;;;;;;;18.9;81.19;;;;;
2023/08/04 06:25:44;;;;;;;5;2.1;;;;;;;19.11;81.43;;;;;
2023/08/04 06:35:44;;;;;;;5;2.1;;;;;;;19.31;80.63;;;;;
2023/08/04 06:46:44;;;;;;;10.7;3.7;;;;;;;19.34;81.19;;;;;
2023/08/04 06:56:44;;;;;;;10.7;3.7;;;;;;;19.41;81.81;;;;;
2023/08/04 07:07:45;;;;;;;10.7;3.7;;;;;;;19.84;80.78;;;;;
2023/08/04 07:18:44;;;;;;;7.4;3.5;;;;;;;20.06;80.62;;;;;
2023/08/04 07:29:44;;;;;;;7.4;3.5;;;;;;;21.03;77.75;;;;;
2023/08/04 07:38:39;;;;;;;7.6;2.9;;;;;;;21.62;73.75;;;;;
2023/08/04 07:48:40;;;;;;;7.6;2.9;;;;;;;21.83;72.59;;;;;
2023/08/04 07:59:38;;;;;;;7.6;2.9;;;;;;;21.76;72.94;;;;;
2023/08/04 08:09:39;;;;;;;7.6;3.2;;;;;;;21.95;72.24;;;;;
2023/08/04 08:19:39;;;;;;;7.6;3.2;;;;;;;22.09;71.39;;;;;
2023/08/04 08:30:39;;;;;;;7.6;3.2;;;;;;;22.23;69.64;;;;;
2023/08/04 08:40:39;;;;;;;7.6;2.5;;;;;;;21.83;70.07;;;;;
2023/08/04 08:51:39;;;;;;;7.6;2.5;;;;;;;21.86;71.69;;;;;
2023/08/04 09:01:39;;;;;;;7.6;2.5;;;;;;;22.08;71.52;;;;;
2023/08/04 09:12:39;;;;;;;4.8;2.1;;;;;;;22.3;69.29;;;;;
2023/08/04 09:23:39;;;;;;;4.8;2.1;;;;;;;22.32;69.74;;;;;
2023/08/04 09:33:41;;;;;;;4.8;2.1;;;;;;;22.41;65.66;;;;;
2023/08/04 09:43:39;;;;;;;5.8;2.5;;;;;;;22.8;67.09;;;;;
2023/08/04 09:53:39;;;;;;;5.8;2.5;;;;;;;22.91;66.05;;;;;
2023/08/04 10:04:39;;;;;;;5.8;2.5;;;;;;;23.08;67.12;;;;;
2023/08/04 10:14:39;;;;;;;4.7;2.4;;;;;;;24.02;61.37;;;;;
2023/08/04 10:24:39;;;;;;;4.7;2.4;;;;;;;24.02;62.02;;;;;
2023/08/04 10:35:39;;;;;;;4.7;2.4;;;;;;;24.67;58.27;;;;;
2023/08/04 10:46:39;;;;;;;5.7;2.2;;;;;;;24.75;62.2;;;;;
2023/08/04 10:56:39;;;;;;;5.7;2.2;;;;;;;25.77;56.76;;;;;
2023/08/04 11:06:39;;;;;;;5.7;2.2;;;;;;;25.96;54.04;;;;;
2023/08/04 11:17:39;;;;;;;10;2.8;;;;;;;27.04;52.84;;;;;
2023/08/04 11:27:39;;;;;;;10;2.8;;;;;;;27.22;46.17;;;;;
2023/08/04 11:37:39;;;;;;;10;2.8;;;;;;;27.02;48.03;;;;;
2023/08/04 11:48:39;;;;;;;4.7;1.5;;;;;;;28.08;47.56;;;;;
2023/08/04 11:58:40;;;;;;;4.7;1.5;;;;;;;27.84;47.64;;;;;
2023/08/04 12:09:40;;;;;;;4.9;1.8;;;;;;;28.33;46.38;;;;;
2023/08/04 12:20:39;;;;;;;4.9;1.8;;;;;;;27.87;46.9;;;;;
2023/08/04 12:31:39;;;;;;;4.9;1.8;;;;;;;27.09;49.39;;;;;
2023/08/04 12:41:39;;;;;;;4.5;1.4;;;;;;;27.41;48.96;;;;;
2023/08/04 12:51:39;;;;;;;4.5;1.4;;;;;;;27.51;48.54;;;;;
2023/08/04 13:01:39;;;;;;;4.5;1.4;;;;;;;27.06;49.2;;;;;
2023/08/04 13:12:39;;;;;;;8.9;2;;;;;;;26.64;51.21;;;;;
2023/08/04 13:22:39;;;;;;;8.9;2;;;;;;;26.82;49.85;;;;;
2023/08/04 13:33:39;;;;;;;8.9;2;;;;;;;26.69;49.62;;;;;
2023/08/04 13:44:39;;;;;;;4.8;1.5;;;;;;;26.71;53.01;;;;;
2023/08/04 13:54:39;;;;;;;4.8;1.5;;;;;;;27.37;49.8;;;;;
2023/08/04 14:05:39;;;;;;;4.8;1.5;;;;;;;26.69;51.07;;;;;
2023/08/04 14:15:39;;;;;;;4.9;1.9;;;;;;;27.05;50.58;;;;;
2023/08/04 14:26:39;;;;;;;4.9;1.9;;;;;;;26.99;49.64;;;;;
2023/08/04 14:37:39;;;;;;;4.9;1.9;;;;;;;27.66;49.01;;;;;
2023/08/04 14:47:39;;;;;;;4;1.5;;;;;;;27.93;50.16;;;;;
2023/08/04 14:57:39;;;;;;;4;1.5;;;;;;;27.09;51.79;;;;;
2023/08/04 15:07:39;;;;;;;4;1.5;;;;;;;27.25;50.52;;;;;
2023/08/04 15:17:40;;;;;;;5;1.9;;;;;;;27.01;48.97;;;;;
2023/08/04 15:27:39;;;;;;;5;1.9;;;;;;;27.45;51.36;;;;;
2023/08/04 15:38:39;;;;;;;5;1.9;;;;;;;27.44;49.26;;;;;
2023/08/04 15:49:39;;;;;;;5.5;1.9;;;;;;;26.93;49.02;;;;;
2023/08/04 15:59:39;;;;;;;5.5;1.9;;;;;;;26.99;50.18;;;;;
2023/08/04 16:09:39;;;;;;;4.2;1.7;;;;;;;28.09;48.09;;;;;
2023/08/04 16:20:39;;;;;;;4.2;1.7;;;;;;;27.56;53.57;;;;;
2023/08/04 16:30:39;;;;;;;4.2;1.7;;;;;;;26.38;56.66;;;;;
2023/08/04 16:41:39;;;;;;;13;3.2;;;;;;;26.04;59.56;;;;;
2023/08/04 16:51:39;;;;;;;13;3.2;;;;;;;25.19;61.2;;;;;
2023/08/04 17:02:39;;;;;;;13;3.2;;;;;;;24.84;62.57;;;;;
2023/08/04 17:13:39;;;;;;;6.1;2.3;;;;;;;24.34;64.58;;;;;
2023/08/04 17:24:39;;;;;;;6.1;2.3;;;;;;;23.91;68.48;;;;;
2023/08/04 17:35:39;;;;;;;6.1;2.3;;;;;;;23.66;67.46;;;;;
2023/08/04 17:46:39;;;;;;;7.3;2.6;;;;;;;23.24;68.48;;;;;
2023/08/04 17:56:39;;;;;;;7.3;2.6;;;;;;;22.78;69.55;;;;;
2023/08/04 18:07:39;;;;;;;7.3;2.6;;;;;;;22.41;72.83;;;;;
2023/08/04 18:17:39;;;;;;;5.8;2.7;;;;;;;22.19;72.28;;;;;
2023/08/04 18:27:39;;;;;;;5.8;2.7;;;;;;;22.03;72.33;;;;;
2023/08/04 18:38:39;;;;;;;5.8;2.7;;;;;;;21.74;73.8;;;;;
2023/08/04 18:48:39;;;;;;;8.8;4.6;;;;;;;21.6;73.51;;;;;
2023/08/04 18:59:39;;;;;;;8.8;4.6;;;;;;;21.44;72.9;;;;;
2023/08/04 19:09:39;;;;;;;12.7;7.7;;;;;;;21.22;73.92;;;;;
2023/08/04 19:20:39;;;;;;;12.7;7.7;;;;;;;20.92;71.45;;;;;
2023/08/04 19:30:39;;;;;;;12.7;7.7;;;;;;;20.88;71.16;;;;;
2023/08/04 19:41:39;;;;;;;4.5;2.1;;;;;;;20.84;71.29;;;;;
2023/08/04 19:52:39;;;;;;;4.5;2.1;;;;;;;20.76;72.29;;;;;
2023/08/04 20:03:39;;;;;;;4.5;2.1;;;;;;;20.7;73.29;;;;;
2023/08/04 20:14:39;;;;;;;6.7;3.9;;;;;;;20.63;73.96;;;;;
2023/08/04 20:24:39;;;;;;;6.7;3.9;;;;;;;20.54;73.88;;;;;
2023/08/04 20:34:39;;;;;;;6.7;3.9;;;;;;;20.57;74.09;;;;;
2023/08/04 20:44:39;;;;;;;7.8;3.7;;;;;;;20.61;74.24;;;;;
2023/08/04 20:54:39;;;;;;;7.8;3.7;;;;;;;20.46;75.32;;;;;
2023/08/04 21:05:39;;;;;;;7.8;3.7;;;;;;;20.61;74.25;;;;;
2023/08/04 21:15:39;;;;;;;9.3;5.3;;;;;;;20.6;74.78;;;;;
2023/08/04 21:25:39;;;;;;;9.3;5.3;;;;;;;20.56;75.54;;;;;
2023/08/04 21:36:39;;;;;;;9.3;5.3;;;;;;;20.45;76.3;;;;;
2023/08/04 21:46:39;;;;;;;7.4;4.7;;;;;;;20.42;75.95;;;;;
2023/08/04 21:56:39;;;;;;;7.4;4.7;;;;;;;20.29;77.57;;;;;
2023/08/04 22:07:39;;;;;;;7.4;4.7;;;;;;;20.37;76.83;;;;;
2023/08/04 22:17:39;;;;;;;6.5;3.8;;;;;;;20.33;77.85;;;;;
2023/08/04 22:27:39;;;;;;;6.5;3.8;;;;;;;20.33;78.32;;;;;
2023/08/04 22:38:39;;;;;;;6.5;3.8;;;;;;;20.06;79.8;;;;;
2023/08/04 22:48:40;;;;;;;7.2;4.3;;;;;;;19.94;79.56;;;;;
2023/08/04 22:58:40;;;;;;;7.2;4.3;;;;;;;19.96;78.89;;;;;
2023/08/04 23:08:39;;;;;;;7.2;4.3;;;;;;;20.06;78.92;;;;;
2023/08/04 23:18:39;;;;;;;8.9;4.1;;;;;;;20.04;78.9;;;;;
2023/08/04 23:28:39;;;;;;;8.9;4.1;;;;;;;20.01;78.87;;;;;
2023/08/04 23:39:39;;;;;;;9.2;4.4;;;;;;;20.05;78.32;;;;;
2023/08/04 23:50:39;;;;;;;9.2;4.4;;;;;;;19.95;79.47;;;;;
